sensor_id;sensor_type;location;lat;lon;timestamp;P1;durP1;ratioP1;P2;durP2;ratioP2
25627;SDS011;40915;50.826;4.356;2022-08-07T00:00:50;2.88;;;1.67;;
25627;SDS011;40915;50.826;4.356;2022-08-07T00:03:17;2.47;;;1.55;;
25627;SDS011;40915;50.826;4.356;2022-08-07T00:05:44;4.72;;;1.75;;
25627;SDS011;40915;50.826;4.356;2022-08-07T00:08:11;4.72;;;1.77;;
25627;SDS011;40915;50.826;4.356;2022-08-07T00:10:39;3.03;;;1.70;;
25627;SDS011;40915;50.826;4.356;2022-08-07T00:13:05;6.03;;;1.50;;
25627;SDS011;40915;50.826;4.356;2022-08-07T00:15:32;3.88;;;2.17;;
25627;SDS011;40915;50.826;4.356;2022-08-07T00:17:58;5.38;;;1.95;;
25627;SDS011;40915;50.826;4.356;2022-08-07T00:20:24;4.32;;;1.90;;
25627;SDS011;40915;50.826;4.356;2022-08-07T00:22:50;6.50;;;2.15;;
25627;SDS011;40915;50.826;4.356;2022-08-07T00:25:16;4.60;;;1.65;;
25627;SDS011;40915;50.826;4.356;2022-08-07T00:27:42;3.38;;;1.55;;
25627;SDS011;40915;50.826;4.356;2022-08-07T00:30:08;3.85;;;1.60;;
25627;SDS011;40915;50.826;4.356;2022-08-07T00:32:34;3.60;;;1.80;;
25627;SDS011;40915;50.826;4.356;2022-08-07T00:35:00;3.10;;;1.42;;
25627;SDS011;40915;50.826;4.356;2022-08-07T00:37:26;4.10;;;1.70;;
25627;SDS011;40915;50.826;4.356;2022-08-07T00:39:52;3.55;;;1.98;;
25627;SDS011;40915;50.826;4.356;2022-08-07T00:42:18;3.70;;;1.77;;
25627;SDS011;40915;50.826;4.356;2022-08-07T00:44:45;4.30;;;1.58;;
25627;SDS011;40915;50.826;4.356;2022-08-07T00:47:11;3.22;;;1.67;;
25627;SDS011;40915;50.826;4.356;2022-08-07T00:49:37;4.72;;;2.25;;
25627;SDS011;40915;50.826;4.356;2022-08-07T00:52:08;5.05;;;2.10;;
25627;SDS011;40915;50.826;4.356;2022-08-07T00:54:34;2.95;;;2.10;;
25627;SDS011;40915;50.826;4.356;2022-08-07T00:57:00;3.15;;;1.75;;
25627;SDS011;40915;50.826;4.356;2022-08-07T00:59:26;3.90;;;2.28;;
25627;SDS011;40915;50.826;4.356;2022-08-07T01:01:52;3.33;;;2.05;;
25627;SDS011;40915;50.826;4.356;2022-08-07T01:04:18;3.90;;;1.92;;
25627;SDS011;40915;50.826;4.356;2022-08-07T01:06:44;3.85;;;2.00;;
25627;SDS011;40915;50.826;4.356;2022-08-07T01:09:10;4.00;;;2.38;;
25627;SDS011;40915;50.826;4.356;2022-08-07T01:11:36;2.95;;;2.20;;
25627;SDS011;40915;50.826;4.356;2022-08-07T01:14:03;3.53;;;2.10;;
25627;SDS011;40915;50.826;4.356;2022-08-07T01:16:29;4.85;;;2.10;;
25627;SDS011;40915;50.826;4.356;2022-08-07T01:18:55;4.78;;;2.30;;
25627;SDS011;40915;50.826;4.356;2022-08-07T01:21:21;3.33;;;2.05;;
25627;SDS011;40915;50.826;4.356;2022-08-07T01:23:51;4.43;;;1.98;;
25627;SDS011;40915;50.826;4.356;2022-08-07T01:26:18;3.60;;;2.15;;
25627;SDS011;40915;50.826;4.356;2022-08-07T01:28:46;4.80;;;2.10;;
25627;SDS011;40915;50.826;4.356;2022-08-07T01:31:13;5.28;;;2.05;;
25627;SDS011;40915;50.826;4.356;2022-08-07T01:33:39;3.60;;;2.00;;
25627;SDS011;40915;50.826;4.356;2022-08-07T01:36:06;2.38;;;1.98;;
25627;SDS011;40915;50.826;4.356;2022-08-07T01:38:33;4.95;;;2.20;;
25627;SDS011;40915;50.826;4.356;2022-08-07T01:41:01;6.15;;;2.30;;
25627;SDS011;40915;50.826;4.356;2022-08-07T01:43:28;9.80;;;2.70;;
25627;SDS011;40915;50.826;4.356;2022-08-07T01:45:54;3.47;;;2.35;;
25627;SDS011;40915;50.826;4.356;2022-08-07T01:48:20;3.60;;;2.28;;
25627;SDS011;40915;50.826;4.356;2022-08-07T01:50:55;4.20;;;2.20;;
25627;SDS011;40915;50.826;4.356;2022-08-07T01:53:22;4.13;;;2.80;;
25627;SDS011;40915;50.826;4.356;2022-08-07T01:55:49;5.93;;;3.13;;
25627;SDS011;40915;50.826;4.356;2022-08-07T01:58:17;5.13;;;2.38;;
25627;SDS011;40915;50.826;4.356;2022-08-07T02:00:44;6.00;;;2.95;;
25627;SDS011;40915;50.826;4.356;2022-08-07T02:03:12;3.50;;;2.70;;
25627;SDS011;40915;50.826;4.356;2022-08-07T02:06:13;4.00;;;2.35;;
25627;SDS011;40915;50.826;4.356;2022-08-07T02:08:32;3.20;;;2.40;;
25627;SDS011;40915;50.826;4.356;2022-08-07T02:11:01;5.05;;;2.65;;
25627;SDS011;40915;50.826;4.356;2022-08-07T02:13:28;2.88;;;2.13;;
25627;SDS011;40915;50.826;4.356;2022-08-07T02:15:55;4.15;;;2.53;;
25627;SDS011;40915;50.826;4.356;2022-08-07T02:18:23;4.53;;;2.20;;
25627;SDS011;40915;50.826;4.356;2022-08-07T02:20:50;4.10;;;2.22;;
25627;SDS011;40915;50.826;4.356;2022-08-07T02:23:17;4.55;;;2.45;;
25627;SDS011;40915;50.826;4.356;2022-08-07T02:25:43;2.95;;;2.22;;
25627;SDS011;40915;50.826;4.356;2022-08-07T02:28:10;4.78;;;2.63;;
25627;SDS011;40915;50.826;4.356;2022-08-07T02:30:37;3.75;;;2.00;;
25627;SDS011;40915;50.826;4.356;2022-08-07T02:33:03;3.30;;;2.10;;
25627;SDS011;40915;50.826;4.356;2022-08-07T02:35:31;4.00;;;2.20;;
25627;SDS011;40915;50.826;4.356;2022-08-07T02:37:57;6.70;;;2.33;;
25627;SDS011;40915;50.826;4.356;2022-08-07T02:40:25;5.50;;;2.30;;
25627;SDS011;40915;50.826;4.356;2022-08-07T02:42:52;3.85;;;2.28;;
25627;SDS011;40915;50.826;4.356;2022-08-07T02:45:18;4.20;;;2.25;;
25627;SDS011;40915;50.826;4.356;2022-08-07T02:47:44;3.80;;;2.45;;
25627;SDS011;40915;50.826;4.356;2022-08-07T02:50:10;4.53;;;2.65;;
25627;SDS011;40915;50.826;4.356;2022-08-07T02:52:40;2.97;;;2.15;;
25627;SDS011;40915;50.826;4.356;2022-08-07T02:55:28;3.30;;;2.20;;
25627;SDS011;40915;50.826;4.356;2022-08-07T02:57:54;6.05;;;2.28;;
25627;SDS011;40915;50.826;4.356;2022-08-07T03:00:23;3.80;;;2.05;;
25627;SDS011;40915;50.826;4.356;2022-08-07T03:02:50;4.28;;;2.40;;
25627;SDS011;40915;50.826;4.356;2022-08-07T03:05:17;2.75;;;2.00;;
25627;SDS011;40915;50.826;4.356;2022-08-07T03:07:43;3.92;;;2.05;;
25627;SDS011;40915;50.826;4.356;2022-08-07T03:10:11;2.50;;;2.13;;
25627;SDS011;40915;50.826;4.356;2022-08-07T03:12:37;4.65;;;2.08;;
25627;SDS011;40915;50.826;4.356;2022-08-07T03:15:05;5.80;;;2.50;;
25627;SDS011;40915;50.826;4.356;2022-08-07T03:17:32;3.85;;;2.08;;
25627;SDS011;40915;50.826;4.356;2022-08-07T03:19:58;4.40;;;2.50;;
25627;SDS011;40915;50.826;4.356;2022-08-07T03:22:25;3.65;;;2.42;;
25627;SDS011;40915;50.826;4.356;2022-08-07T03:24:51;4.25;;;2.30;;
25627;SDS011;40915;50.826;4.356;2022-08-07T03:27:17;5.78;;;2.33;;
25627;SDS011;40915;50.826;4.356;2022-08-07T03:29:45;3.15;;;2.30;;
25627;SDS011;40915;50.826;4.356;2022-08-07T03:32:12;3.58;;;2.10;;
25627;SDS011;40915;50.826;4.356;2022-08-07T03:34:39;3.63;;;2.65;;
25627;SDS011;40915;50.826;4.356;2022-08-07T03:37:07;4.22;;;2.40;;
25627;SDS011;40915;50.826;4.356;2022-08-07T03:39:34;5.82;;;2.60;;
25627;SDS011;40915;50.826;4.356;2022-08-07T03:42:00;3.78;;;2.60;;
25627;SDS011;40915;50.826;4.356;2022-08-07T03:44:27;4.80;;;2.20;;
25627;SDS011;40915;50.826;4.356;2022-08-07T03:46:54;7.03;;;2.70;;
25627;SDS011;40915;50.826;4.356;2022-08-07T03:49:20;3.08;;;2.22;;
25627;SDS011;40915;50.826;4.356;2022-08-07T03:51:46;2.42;;;2.10;;
25627;SDS011;40915;50.826;4.356;2022-08-07T03:54:14;5.78;;;2.38;;
25627;SDS011;40915;50.826;4.356;2022-08-07T03:56:40;4.28;;;2.22;;
25627;SDS011;40915;50.826;4.356;2022-08-07T03:59:07;3.50;;;2.30;;
25627;SDS011;40915;50.826;4.356;2022-08-07T04:01:38;3.63;;;2.42;;
25627;SDS011;40915;50.826;4.356;2022-08-07T04:04:05;3.90;;;2.53;;
25627;SDS011;40915;50.826;4.356;2022-08-07T04:06:31;4.57;;;2.65;;
25627;SDS011;40915;50.826;4.356;2022-08-07T04:08:58;5.00;;;3.05;;
25627;SDS011;40915;50.826;4.356;2022-08-07T04:11:25;3.35;;;2.75;;
25627;SDS011;40915;50.826;4.356;2022-08-07T04:13:51;4.10;;;2.50;;
25627;SDS011;40915;50.826;4.356;2022-08-07T04:16:18;6.03;;;2.83;;
25627;SDS011;40915;50.826;4.356;2022-08-07T04:18:45;4.25;;;2.83;;
25627;SDS011;40915;50.826;4.356;2022-08-07T04:21:11;3.65;;;2.75;;
25627;SDS011;40915;50.826;4.356;2022-08-07T04:23:37;6.10;;;3.00;;
25627;SDS011;40915;50.826;4.356;2022-08-07T04:26:04;5.10;;;3.15;;
25627;SDS011;40915;50.826;4.356;2022-08-07T04:28:31;6.00;;;3.35;;
25627;SDS011;40915;50.826;4.356;2022-08-07T04:30:57;7.13;;;3.20;;
25627;SDS011;40915;50.826;4.356;2022-08-07T04:33:23;6.30;;;3.72;;
25627;SDS011;40915;50.826;4.356;2022-08-07T04:35:49;4.97;;;3.08;;
25627;SDS011;40915;50.826;4.356;2022-08-07T04:38:15;5.50;;;3.35;;
25627;SDS011;40915;50.826;4.356;2022-08-07T04:40:42;9.00;;;3.40;;
25627;SDS011;40915;50.826;4.356;2022-08-07T04:43:09;6.82;;;3.58;;
25627;SDS011;40915;50.826;4.356;2022-08-07T04:45:52;5.30;;;3.33;;
25627;SDS011;40915;50.826;4.356;2022-08-07T04:48:33;5.43;;;3.35;;
25627;SDS011;40915;50.826;4.356;2022-08-07T04:51:05;4.40;;;3.53;;
25627;SDS011;40915;50.826;4.356;2022-08-07T04:53:36;6.75;;;3.25;;
25627;SDS011;40915;50.826;4.356;2022-08-07T04:56:06;5.82;;;3.47;;
25627;SDS011;40915;50.826;4.356;2022-08-07T05:01:20;7.60;;;3.95;;
25627;SDS011;40915;50.826;4.356;2022-08-07T05:03:54;8.07;;;3.92;;
25627;SDS011;40915;50.826;4.356;2022-08-07T05:06:24;7.35;;;4.10;;
25627;SDS011;40915;50.826;4.356;2022-08-07T05:11:34;7.20;;;5.10;;
25627;SDS011;40915;50.826;4.356;2022-08-07T05:14:04;7.35;;;4.55;;
25627;SDS011;40915;50.826;4.356;2022-08-07T05:16:33;7.97;;;5.18;;
25627;SDS011;40915;50.826;4.356;2022-08-07T05:19:01;7.75;;;5.05;;
25627;SDS011;40915;50.826;4.356;2022-08-07T05:21:29;7.50;;;4.43;;
25627;SDS011;40915;50.826;4.356;2022-08-07T05:26:22;8.00;;;5.30;;
25627;SDS011;40915;50.826;4.356;2022-08-07T05:28:50;6.88;;;4.97;;
25627;SDS011;40915;50.826;4.356;2022-08-07T05:31:17;7.35;;;4.85;;
25627;SDS011;40915;50.826;4.356;2022-08-07T05:33:44;9.23;;;5.20;;
25627;SDS011;40915;50.826;4.356;2022-08-07T05:36:10;7.50;;;5.03;;
25627;SDS011;40915;50.826;4.356;2022-08-07T05:38:36;6.25;;;4.72;;
25627;SDS011;40915;50.826;4.356;2022-08-07T05:41:04;9.13;;;4.85;;
25627;SDS011;40915;50.826;4.356;2022-08-07T05:43:31;10.57;;;4.72;;
25627;SDS011;40915;50.826;4.356;2022-08-07T05:45:58;6.85;;;4.70;;
25627;SDS011;40915;50.826;4.356;2022-08-07T05:48:27;9.57;;;4.55;;
25627;SDS011;40915;50.826;4.356;2022-08-07T05:50:53;9.43;;;4.95;;
25627;SDS011;40915;50.826;4.356;2022-08-07T05:53:20;9.68;;;4.93;;
25627;SDS011;40915;50.826;4.356;2022-08-07T05:55:46;6.00;;;3.95;;
25627;SDS011;40915;50.826;4.356;2022-08-07T05:58:12;8.15;;;4.13;;
25627;SDS011;40915;50.826;4.356;2022-08-07T06:00:39;5.45;;;4.15;;
25627;SDS011;40915;50.826;4.356;2022-08-07T06:03:05;7.18;;;4.07;;
25627;SDS011;40915;50.826;4.356;2022-08-07T06:05:33;5.63;;;3.85;;
25627;SDS011;40915;50.826;4.356;2022-08-07T06:08:00;6.60;;;3.90;;
25627;SDS011;40915;50.826;4.356;2022-08-07T06:10:26;4.72;;;3.78;;
25627;SDS011;40915;50.826;4.356;2022-08-07T06:12:53;5.28;;;3.60;;
25627;SDS011;40915;50.826;4.356;2022-08-07T06:15:19;7.13;;;3.75;;
25627;SDS011;40915;50.826;4.356;2022-08-07T06:17:46;4.20;;;3.58;;
25627;SDS011;40915;50.826;4.356;2022-08-07T06:20:12;4.20;;;3.25;;
25627;SDS011;40915;50.826;4.356;2022-08-07T06:22:41;5.75;;;3.30;;
25627;SDS011;40915;50.826;4.356;2022-08-07T06:25:07;5.18;;;3.28;;
25627;SDS011;40915;50.826;4.356;2022-08-07T06:27:33;5.28;;;3.00;;
25627;SDS011;40915;50.826;4.356;2022-08-07T06:30:01;4.70;;;2.55;;
25627;SDS011;40915;50.826;4.356;2022-08-07T06:32:27;5.18;;;2.65;;
25627;SDS011;40915;50.826;4.356;2022-08-07T06:34:55;4.35;;;2.25;;
25627;SDS011;40915;50.826;4.356;2022-08-07T06:37:23;3.47;;;2.30;;
25627;SDS011;40915;50.826;4.356;2022-08-07T06:39:48;4.40;;;2.45;;
25627;SDS011;40915;50.826;4.356;2022-08-07T06:44:43;4.43;;;2.47;;
25627;SDS011;40915;50.826;4.356;2022-08-07T06:47:11;2.83;;;2.10;;
25627;SDS011;40915;50.826;4.356;2022-08-07T06:49:37;4.63;;;2.47;;
25627;SDS011;40915;50.826;4.356;2022-08-07T06:52:03;3.60;;;2.30;;
25627;SDS011;40915;50.826;4.356;2022-08-07T06:54:32;3.85;;;2.72;;
25627;SDS011;40915;50.826;4.356;2022-08-07T06:56:58;3.70;;;2.40;;
25627;SDS011;40915;50.826;4.356;2022-08-07T06:59:38;4.28;;;2.30;;
25627;SDS011;40915;50.826;4.356;2022-08-07T07:02:06;3.38;;;2.17;;
25627;SDS011;40915;50.826;4.356;2022-08-07T07:04:37;3.00;;;2.20;;
25627;SDS011;40915;50.826;4.356;2022-08-07T07:07:03;3.22;;;2.40;;
25627;SDS011;40915;50.826;4.356;2022-08-07T07:09:31;5.93;;;2.30;;
25627;SDS011;40915;50.826;4.356;2022-08-07T07:17:11;3.83;;;2.45;;
25627;SDS011;40915;50.826;4.356;2022-08-07T07:19:49;3.40;;;2.65;;
25627;SDS011;40915;50.826;4.356;2022-08-07T07:22:19;3.78;;;2.45;;
25627;SDS011;40915;50.826;4.356;2022-08-07T07:24:46;3.47;;;2.20;;
25627;SDS011;40915;50.826;4.356;2022-08-07T07:27:13;3.63;;;2.20;;
25627;SDS011;40915;50.826;4.356;2022-08-07T07:29:44;4.75;;;2.72;;
25627;SDS011;40915;50.826;4.356;2022-08-07T07:32:13;3.30;;;2.80;;
25627;SDS011;40915;50.826;4.356;2022-08-07T07:34:41;3.83;;;2.30;;
25627;SDS011;40915;50.826;4.356;2022-08-07T07:37:10;2.95;;;2.15;;
25627;SDS011;40915;50.826;4.356;2022-08-07T07:39:38;3.25;;;2.50;;
25627;SDS011;40915;50.826;4.356;2022-08-07T07:42:05;4.43;;;2.33;;
25627;SDS011;40915;50.826;4.356;2022-08-07T07:44:33;3.25;;;2.50;;
25627;SDS011;40915;50.826;4.356;2022-08-07T07:47:03;3.20;;;2.17;;
25627;SDS011;40915;50.826;4.356;2022-08-07T07:49:31;4.55;;;2.38;;
25627;SDS011;40915;50.826;4.356;2022-08-07T07:52:00;5.28;;;2.42;;
25627;SDS011;40915;50.826;4.356;2022-08-07T07:54:26;5.68;;;2.45;;
25627;SDS011;40915;50.826;4.356;2022-08-07T07:56:54;2.63;;;2.40;;
25627;SDS011;40915;50.826;4.356;2022-08-07T07:59:21;3.08;;;2.70;;
25627;SDS011;40915;50.826;4.356;2022-08-07T08:01:49;3.13;;;2.28;;
25627;SDS011;40915;50.826;4.356;2022-08-07T08:04:20;3.92;;;2.30;;
25627;SDS011;40915;50.826;4.356;2022-08-07T08:06:50;2.38;;;2.17;;
25627;SDS011;40915;50.826;4.356;2022-08-07T08:09:18;2.63;;;2.30;;
25627;SDS011;40915;50.826;4.356;2022-08-07T08:11:45;4.85;;;2.75;;
25627;SDS011;40915;50.826;4.356;2022-08-07T08:14:11;3.75;;;2.65;;
25627;SDS011;40915;50.826;4.356;2022-08-07T08:16:38;3.92;;;2.53;;
25627;SDS011;40915;50.826;4.356;2022-08-07T08:19:06;3.38;;;2.22;;
25627;SDS011;40915;50.826;4.356;2022-08-07T08:21:35;3.38;;;2.10;;
25627;SDS011;40915;50.826;4.356;2022-08-07T08:24:22;3.13;;;2.63;;
25627;SDS011;40915;50.826;4.356;2022-08-07T08:27:08;4.07;;;2.90;;
25627;SDS011;40915;50.826;4.356;2022-08-07T08:29:42;4.00;;;2.10;;
25627;SDS011;40915;50.826;4.356;2022-08-07T08:32:14;4.72;;;2.50;;
25627;SDS011;40915;50.826;4.356;2022-08-07T08:34:43;5.07;;;2.50;;
25627;SDS011;40915;50.826;4.356;2022-08-07T08:37:10;3.55;;;2.65;;
25627;SDS011;40915;50.826;4.356;2022-08-07T08:39:38;5.20;;;2.90;;
25627;SDS011;40915;50.826;4.356;2022-08-07T08:42:18;4.60;;;2.90;;
25627;SDS011;40915;50.826;4.356;2022-08-07T08:51:00;5.63;;;2.58;;
25627;SDS011;40915;50.826;4.356;2022-08-07T08:56:32;4.35;;;2.90;;
25627;SDS011;40915;50.826;4.356;2022-08-07T09:01:30;5.18;;;2.75;;
25627;SDS011;40915;50.826;4.356;2022-08-07T09:06:59;6.43;;;3.22;;
25627;SDS011;40915;50.826;4.356;2022-08-07T09:17:52;6.05;;;2.95;;
25627;SDS011;40915;50.826;4.356;2022-08-07T09:20:31;4.10;;;2.80;;
25627;SDS011;40915;50.826;4.356;2022-08-07T09:25:57;4.90;;;2.78;;
25627;SDS011;40915;50.826;4.356;2022-08-07T09:28:30;4.30;;;2.38;;
25627;SDS011;40915;50.826;4.356;2022-08-07T09:31:05;3.50;;;2.28;;
25627;SDS011;40915;50.826;4.356;2022-08-07T09:34:35;4.00;;;2.22;;
25627;SDS011;40915;50.826;4.356;2022-08-07T09:37:14;4.85;;;2.30;;
25627;SDS011;40915;50.826;4.356;2022-08-07T09:40:00;3.65;;;2.75;;
25627;SDS011;40915;50.826;4.356;2022-08-07T09:42:53;3.33;;;2.58;;
25627;SDS011;40915;50.826;4.356;2022-08-07T09:53:46;4.18;;;2.40;;
25627;SDS011;40915;50.826;4.356;2022-08-07T10:06:57;4.22;;;2.00;;
25627;SDS011;40915;50.826;4.356;2022-08-07T10:21:29;3.47;;;2.10;;
25627;SDS011;40915;50.826;4.356;2022-08-07T10:24:17;4.82;;;1.90;;
25627;SDS011;40915;50.826;4.356;2022-08-07T10:35:28;3.55;;;1.80;;
25627;SDS011;40915;50.826;4.356;2022-08-07T10:41:13;4.55;;;2.30;;
25627;SDS011;40915;50.826;4.356;2022-08-07T10:43:43;3.38;;;2.00;;
25627;SDS011;40915;50.826;4.356;2022-08-07T10:46:24;2.40;;;1.90;;
25627;SDS011;40915;50.826;4.356;2022-08-07T10:49:13;4.60;;;2.22;;
25627;SDS011;40915;50.826;4.356;2022-08-07T10:57:09;3.03;;;1.60;;
25627;SDS011;40915;50.826;4.356;2022-08-07T11:02:21;2.53;;;1.70;;
25627;SDS011;40915;50.826;4.356;2022-08-07T11:13:06;3.72;;;2.17;;
25627;SDS011;40915;50.826;4.356;2022-08-07T11:15:34;3.95;;;1.70;;
25627;SDS011;40915;50.826;4.356;2022-08-07T11:18:15;4.65;;;1.90;;
25627;SDS011;40915;50.826;4.356;2022-08-07T11:21:06;1.90;;;1.60;;
25627;SDS011;40915;50.826;4.356;2022-08-07T11:24:00;3.28;;;1.50;;
25627;SDS011;40915;50.826;4.356;2022-08-07T11:32:11;3.15;;;1.65;;
25627;SDS011;40915;50.826;4.356;2022-08-07T11:34:45;2.50;;;1.50;;
25627;SDS011;40915;50.826;4.356;2022-08-07T11:42:53;2.63;;;2.08;;
25627;SDS011;40915;50.826;4.356;2022-08-07T11:48:32;2.80;;;1.77;;
25627;SDS011;40915;50.826;4.356;2022-08-07T12:09:58;2.45;;;1.45;;
25627;SDS011;40915;50.826;4.356;2022-08-07T12:12:36;3.05;;;1.75;;
25627;SDS011;40915;50.826;4.356;2022-08-07T12:17:44;4.10;;;1.75;;
25627;SDS011;40915;50.826;4.356;2022-08-07T12:20:18;4.13;;;1.40;;
25627;SDS011;40915;50.826;4.356;2022-08-07T12:25:57;2.75;;;1.77;;
25627;SDS011;40915;50.826;4.356;2022-08-07T12:34:04;2.88;;;1.65;;
25627;SDS011;40915;50.826;4.356;2022-08-07T12:36:30;2.88;;;1.67;;
25627;SDS011;40915;50.826;4.356;2022-08-07T12:38:58;4.00;;;2.15;;
25627;SDS011;40915;50.826;4.356;2022-08-07T12:41:27;2.15;;;1.48;;
25627;SDS011;40915;50.826;4.356;2022-08-07T12:43:55;2.67;;;1.67;;
25627;SDS011;40915;50.826;4.356;2022-08-07T12:46:31;2.22;;;1.25;;
25627;SDS011;40915;50.826;4.356;2022-08-07T12:49:28;2.97;;;1.58;;
25627;SDS011;40915;50.826;4.356;2022-08-07T12:57:16;4.68;;;2.50;;
25627;SDS011;40915;50.826;4.356;2022-08-07T12:59:48;2.22;;;1.67;;
25627;SDS011;40915;50.826;4.356;2022-08-07T13:05:08;2.50;;;1.30;;
25627;SDS011;40915;50.826;4.356;2022-08-07T13:21:43;2.10;;;1.33;;
25627;SDS011;40915;50.826;4.356;2022-08-07T13:26:48;2.92;;;1.33;;
25627;SDS011;40915;50.826;4.356;2022-08-07T13:30:02;1.40;;;1.27;;
25627;SDS011;40915;50.826;4.356;2022-08-07T13:32:49;2.20;;;1.58;;
25627;SDS011;40915;50.826;4.356;2022-08-07T13:38:28;1.85;;;1.30;;
25627;SDS011;40915;50.826;4.356;2022-08-07T13:41:12;1.77;;;1.50;;
25627;SDS011;40915;50.826;4.356;2022-08-07T13:43:41;1.83;;;1.20;;
25627;SDS011;40915;50.826;4.356;2022-08-07T13:46:11;1.90;;;1.30;;
25627;SDS011;40915;50.826;4.356;2022-08-07T13:48:38;3.13;;;1.55;;
25627;SDS011;40915;50.826;4.356;2022-08-07T13:51:10;2.72;;;1.40;;
25627;SDS011;40915;50.826;4.356;2022-08-07T13:53:38;1.75;;;1.40;;
25627;SDS011;40915;50.826;4.356;2022-08-07T13:56:08;1.75;;;1.20;;
25627;SDS011;40915;50.826;4.356;2022-08-07T13:58:38;3.20;;;1.48;;
25627;SDS011;40915;50.826;4.356;2022-08-07T14:01:25;2.17;;;1.60;;
25627;SDS011;40915;50.826;4.356;2022-08-07T14:03:56;2.85;;;1.50;;
25627;SDS011;40915;50.826;4.356;2022-08-07T14:06:23;4.28;;;1.30;;
25627;SDS011;40915;50.826;4.356;2022-08-07T14:08:55;4.28;;;1.67;;
25627;SDS011;40915;50.826;4.356;2022-08-07T14:11:22;3.28;;;1.50;;
25627;SDS011;40915;50.826;4.356;2022-08-07T14:13:53;3.65;;;1.50;;
25627;SDS011;40915;50.826;4.356;2022-08-07T14:16:39;3.08;;;2.45;;
25627;SDS011;40915;50.826;4.356;2022-08-07T14:19:43;1.30;;;1.17;;
25627;SDS011;40915;50.826;4.356;2022-08-07T14:22:07;3.95;;;1.50;;
25627;SDS011;40915;50.826;4.356;2022-08-07T14:24:39;2.22;;;1.40;;
25627;SDS011;40915;50.826;4.356;2022-08-07T14:27:10;1.42;;;1.33;;
25627;SDS011;40915;50.826;4.356;2022-08-07T14:29:46;2.55;;;1.60;;
25627;SDS011;40915;50.826;4.356;2022-08-07T14:32:17;2.63;;;1.80;;
25627;SDS011;40915;50.826;4.356;2022-08-07T14:34:44;1.98;;;1.60;;
25627;SDS011;40915;50.826;4.356;2022-08-07T14:37:12;2.10;;;1.40;;
25627;SDS011;40915;50.826;4.356;2022-08-07T14:39:41;2.17;;;1.60;;
25627;SDS011;40915;50.826;4.356;2022-08-07T14:42:10;4.93;;;1.55;;
25627;SDS011;40915;50.826;4.356;2022-08-07T14:44:46;2.13;;;1.52;;
25627;SDS011;40915;50.826;4.356;2022-08-07T14:47:16;2.22;;;1.38;;
25627;SDS011;40915;50.826;4.356;2022-08-07T14:49:44;1.58;;;1.25;;
25627;SDS011;40915;50.826;4.356;2022-08-07T14:52:12;2.42;;;1.50;;
25627;SDS011;40915;50.826;4.356;2022-08-07T14:54:38;3.60;;;1.80;;
25627;SDS011;40915;50.826;4.356;2022-08-07T14:57:08;3.53;;;1.63;;
25627;SDS011;40915;50.826;4.356;2022-08-07T14:59:35;3.65;;;2.10;;
25627;SDS011;40915;50.826;4.356;2022-08-07T15:02:10;2.95;;;1.92;;
25627;SDS011;40915;50.826;4.356;2022-08-07T15:04:41;2.15;;;1.77;;
25627;SDS011;40915;50.826;4.356;2022-08-07T15:07:10;2.65;;;1.80;;
25627;SDS011;40915;50.826;4.356;2022-08-07T15:09:41;6.22;;;2.05;;
25627;SDS011;40915;50.826;4.356;2022-08-07T15:12:09;3.28;;;1.70;;
25627;SDS011;40915;50.826;4.356;2022-08-07T15:15:03;4.30;;;2.50;;
25627;SDS011;40915;50.826;4.356;2022-08-07T15:17:34;5.25;;;2.67;;
25627;SDS011;40915;50.826;4.356;2022-08-07T15:20:05;3.55;;;1.80;;
25627;SDS011;40915;50.826;4.356;2022-08-07T15:22:47;4.05;;;1.88;;
25627;SDS011;40915;50.826;4.356;2022-08-07T15:25:17;2.85;;;2.38;;
25627;SDS011;40915;50.826;4.356;2022-08-07T15:27:50;4.85;;;2.08;;
25627;SDS011;40915;50.826;4.356;2022-08-07T15:30:21;2.63;;;1.90;;
25627;SDS011;40915;50.826;4.356;2022-08-07T15:32:48;2.60;;;1.88;;
25627;SDS011;40915;50.826;4.356;2022-08-07T15:35:20;3.60;;;1.65;;
25627;SDS011;40915;50.826;4.356;2022-08-07T15:37:52;4.95;;;1.90;;
25627;SDS011;40915;50.826;4.356;2022-08-07T15:40:19;3.60;;;2.10;;
25627;SDS011;40915;50.826;4.356;2022-08-07T15:42:52;1.90;;;1.70;;
25627;SDS011;40915;50.826;4.356;2022-08-07T15:47:51;3.38;;;1.70;;
25627;SDS011;40915;50.826;4.356;2022-08-07T15:50:29;2.53;;;1.67;;
25627;SDS011;40915;50.826;4.356;2022-08-07T15:53:07;3.00;;;1.80;;
25627;SDS011;40915;50.826;4.356;2022-08-07T15:55:44;3.65;;;1.92;;
25627;SDS011;40915;50.826;4.356;2022-08-07T15:58:16;4.13;;;1.85;;
25627;SDS011;40915;50.826;4.356;2022-08-07T16:00:45;5.05;;;1.83;;
25627;SDS011;40915;50.826;4.356;2022-08-07T16:03:16;3.25;;;1.67;;
25627;SDS011;40915;50.826;4.356;2022-08-07T16:05:45;2.58;;;1.33;;
25627;SDS011;40915;50.826;4.356;2022-08-07T16:08:15;2.83;;;1.73;;
25627;SDS011;40915;50.826;4.356;2022-08-07T16:10:47;4.20;;;2.03;;
25627;SDS011;40915;50.826;4.356;2022-08-07T16:21:38;2.80;;;1.77;;
25627;SDS011;40915;50.826;4.356;2022-08-07T16:24:22;3.03;;;1.80;;
25627;SDS011;40915;50.826;4.356;2022-08-07T16:27:05;3.35;;;1.90;;
25627;SDS011;40915;50.826;4.356;2022-08-07T16:30:13;4.03;;;1.90;;
25627;SDS011;40915;50.826;4.356;2022-08-07T16:32:48;3.72;;;2.13;;
25627;SDS011;40915;50.826;4.356;2022-08-07T16:35:24;4.85;;;2.33;;
25627;SDS011;40915;50.826;4.356;2022-08-07T16:42:08;4.97;;;1.92;;
25627;SDS011;40915;50.826;4.356;2022-08-07T16:50:01;5.18;;;1.95;;
25627;SDS011;40915;50.826;4.356;2022-08-07T16:52:16;3.65;;;1.92;;
25627;SDS011;40915;50.826;4.356;2022-08-07T16:55:50;3.88;;;1.85;;
25627;SDS011;40915;50.826;4.356;2022-08-07T16:58:01;3.03;;;1.85;;
25627;SDS011;40915;50.826;4.356;2022-08-07T17:00:40;2.90;;;1.80;;
25627;SDS011;40915;50.826;4.356;2022-08-07T17:03:17;2.20;;;1.80;;
25627;SDS011;40915;50.826;4.356;2022-08-07T17:05:57;4.28;;;2.20;;
25627;SDS011;40915;50.826;4.356;2022-08-07T17:14:41;5.80;;;2.10;;
25627;SDS011;40915;50.826;4.356;2022-08-07T17:17:14;4.38;;;2.05;;
25627;SDS011;40915;50.826;4.356;2022-08-07T17:19:55;2.85;;;2.25;;
25627;SDS011;40915;50.826;4.356;2022-08-07T17:22:31;5.13;;;2.05;;
25627;SDS011;40915;50.826;4.356;2022-08-07T17:28:08;4.22;;;2.20;;
25627;SDS011;40915;50.826;4.356;2022-08-07T17:30:40;5.85;;;2.00;;
25627;SDS011;40915;50.826;4.356;2022-08-07T17:33:24;4.68;;;2.10;;
25627;SDS011;40915;50.826;4.356;2022-08-07T17:36:02;5.78;;;2.20;;
25627;SDS011;40915;50.826;4.356;2022-08-07T17:41:56;3.03;;;2.15;;
25627;SDS011;40915;50.826;4.356;2022-08-07T17:44:30;4.80;;;2.45;;
25627;SDS011;40915;50.826;4.356;2022-08-07T17:47:12;3.15;;;2.20;;
25627;SDS011;40915;50.826;4.356;2022-08-07T17:49:49;4.15;;;2.28;;
25627;SDS011;40915;50.826;4.356;2022-08-07T17:55:16;5.45;;;2.50;;
25627;SDS011;40915;50.826;4.356;2022-08-07T17:57:54;3.25;;;2.25;;
25627;SDS011;40915;50.826;4.356;2022-08-07T18:00:27;3.67;;;2.50;;
25627;SDS011;40915;50.826;4.356;2022-08-07T18:08:13;4.32;;;2.33;;
25627;SDS011;40915;50.826;4.356;2022-08-07T18:18:56;4.03;;;2.08;;
25627;SDS011;40915;50.826;4.356;2022-08-07T18:21:32;5.70;;;2.33;;
25627;SDS011;40915;50.826;4.356;2022-08-07T18:29:37;8.48;;;2.00;;
25627;SDS011;40915;50.826;4.356;2022-08-07T18:32:36;3.67;;;2.20;;
25627;SDS011;40915;50.826;4.356;2022-08-07T18:35:15;4.20;;;2.08;;
25627;SDS011;40915;50.826;4.356;2022-08-07T18:57:37;6.28;;;2.50;;
25627;SDS011;40915;50.826;4.356;2022-08-07T19:00:09;5.72;;;3.10;;
25627;SDS011;40915;50.826;4.356;2022-08-07T19:02:43;3.95;;;2.20;;
25627;SDS011;40915;50.826;4.356;2022-08-07T19:05:24;3.60;;;2.28;;
25627;SDS011;40915;50.826;4.356;2022-08-07T19:10:48;5.03;;;2.67;;
25627;SDS011;40915;50.826;4.356;2022-08-07T19:13:23;7.43;;;2.83;;
25627;SDS011;40915;50.826;4.356;2022-08-07T19:18:29;4.47;;;2.30;;
25627;SDS011;40915;50.826;4.356;2022-08-07T19:23:52;6.80;;;2.60;;
25627;SDS011;40915;50.826;4.356;2022-08-07T19:26:23;5.57;;;2.63;;